Aeroporto :







RITROVATECI SU...

 
LOGIN :

Iscrizione | Disclaimer

   EN    FR    IT 

 









Sommario :    VFR   VFR Marginale   IFR   IFR Intensivo   IFR Molto Intensivo
Visibilità : 
Base nubi : 
>= 8 km
>= 3000ft
5 / 8 km
1000 / 3000 ft
1500m / 5 km
500 / 1000 ft
800 / 1500m
200 / 500 ft
< 800m
< 200 ft
Simboli :   Temporali  Nebbia  Neve Forte  Precipitazioni Forti  Vento > 20 kt






- Altitudine del aeroporto : 827 ft


KDDH - William H. Morse State

ULTIMO METAR :
  • 160754Z AUTO 27005KT 10SM CLR M06/M13 A3016 RMK AO2 SNE47 SLP224 P0000 T10561128

METARs OBSOLETI :
  • 160654Z AUTO 29004KT 9SM -SN CLR M05/M12 A3013 RMK AO2 SLP211 P0000 T10501122
  • 160554Z AUTO 25004KT 9SM -SN CLR M04/M13 A3009 RMK AO2 SLP200 P0000 60000 T10441128 11011 21044 51019

TAF N/A



MetMap, La meteo Aeronautica in un colpo d'occhio ! - Copyright ORBIFLY Dicembre 2007 - Disclaimer

ORBIFLY MET'MAP TEAM :

Programmazione e sviluppo : Alexandra Zaïnal
Concezione : Baudouin d'Aumeries
Aiuto per la programmazione : Marc-Olivier Méhu
Supporto tecnico e logistico : Manuel Goepfert
Aiuto per la traduzione : Arnaldo La Scala

Contatto : metmap@orbifly.com




FONTI E CREDITI :

   NOAA